Time;durP1;ratioP1;P1;durP2;ratioP2;P2;SDS_P1;SDS_P2;PMS_P1;PMS_P2;Temp;Humidity;BMP_temperature;BMP_pressure;BME280_temperature;BME280_humidity;BME280_pressure;Samples;Min_cycle;Max_cycle;Signal;HPM_P1;HPM_P2
2023/09/09 00:00:39;;;;;;;;;;;21.50;99.90;;;;;;7334237;19;109310;-73
2023/09/09 00:03:06;;;;;;;;;;;21.50;99.90;;;;;;7333855;19;111160;-73
2023/09/09 00:05:36;;;;;;;;;;;21.50;99.90;;;;;;7334796;19;109966;-77
2023/09/09 00:08:03;;;;;;;;;;;21.50;99.90;;;;;;7332399;19;108764;-73
2023/09/09 00:10:34;;;;;;;;;;;21.40;99.90;;;;;;7334516;19;108769;-76
2023/09/09 00:13:01;;;;;;;;;;;21.30;99.90;;;;;;7330494;19;111914;-76
2023/09/09 00:15:29;;;;;;;;;;;21.30;99.90;;;;;;7336582;19;109120;-70
2023/09/09 00:17:56;;;;;;;;;;;21.30;99.90;;;;;;7335807;19;109905;-91
2023/09/09 00:20:32;;;;;;;;;;;21.30;99.90;;;;;;7324421;19;110164;-90
2023/09/09 00:23:08;;;;;;;;;;;21.20;99.90;;;;;;7335833;19;111581;-90
2023/09/09 00:25:40;;;;;;;;;;;21.20;99.90;;;;;;7332240;19;111008;-68
2023/09/09 00:28:07;;;;;;;;;;;21.20;99.90;;;;;;7333160;19;108873;-68
2023/09/09 00:30:35;;;;;;;;;;;21.20;99.90;;;;;;7331731;19;109454;-68
2023/09/09 00:33:02;;;;;;;;;;;21.20;99.90;;;;;;7332892;19;110860;-68
2023/09/09 00:35:32;;;;;;;;;;;21.10;99.90;;;;;;7333727;19;109461;-68
2023/09/09 00:38:00;;;;;;;;;;;21.10;99.90;;;;;;7334226;19;108791;-68
2023/09/09 00:40:27;;;;;;;;;;;21.00;99.90;;;;;;7337350;19;109198;-68
2023/09/09 00:42:54;;;;;;;;;;;21.00;99.90;;;;;;7330238;19;108847;-68
2023/09/09 00:45:21;;;;;;;;;;;21.00;99.90;;;;;;7332532;19;109302;-67
2023/09/09 00:47:49;;;;;;;;;;;20.90;99.90;;;;;;7333260;19;110592;-68
2023/09/09 00:50:16;;;;;;;;;;;20.90;99.90;;;;;;7330533;19;110235;-68
2023/09/09 00:52:44;;;;;;;;;;;20.90;99.90;;;;;;7333151;19;109235;-68
2023/09/09 00:55:11;;;;;;;;;;;20.80;99.90;;;;;;7334860;19;109232;-69
2023/09/09 00:57:39;;;;;;;;;;;20.90;99.90;;;;;;7332173;19;109012;-68
2023/09/09 01:00:09;;;;;;;;;;;20.90;99.90;;;;;;7338393;19;110209;-69
2023/09/09 01:02:37;;;;;;;;;;;20.80;99.90;;;;;;7328228;19;111822;-68
2023/09/09 01:05:05;;;;;;;;;;;20.80;99.90;;;;;;7329857;19;109614;-68
2023/09/09 01:07:45;;;;;;;;;;;20.80;99.90;;;;;;7331470;19;108380;-68
2023/09/09 01:10:16;;;;;;;;;;;20.70;99.90;;;;;;7332951;19;108818;-69
2023/09/09 01:12:43;;;;;;;;;;;20.70;99.90;;;;;;7326928;19;109926;-68
2023/09/09 01:15:12;;;;;;;;;;;20.60;99.90;;;;;;7330022;19;110933;-68
2023/09/09 01:17:42;;;;;;;;;;;20.60;99.90;;;;;;7331245;19;109868;-69
2023/09/09 01:20:14;;;;;;;;;;;20.60;99.90;;;;;;7328020;19;109285;-68
2023/09/09 01:22:43;;;;;;;;;;;20.60;99.90;;;;;;7336569;19;109260;-67
2023/09/09 01:25:11;;;;;;;;;;;20.60;99.90;;;;;;7330404;19;110246;-68
2023/09/09 01:27:39;;;;;;;;;;;20.60;99.90;;;;;;7332689;19;109367;-69
2023/09/09 01:30:06;;;;;;;;;;;20.50;99.90;;;;;;7331883;19;110467;-68
2023/09/09 01:32:34;;;;;;;;;;;20.50;99.90;;;;;;7330015;19;109707;-68
2023/09/09 01:35:06;;;;;;;;;;;20.50;99.90;;;;;;7330534;19;109160;-69
2023/09/09 01:37:34;;;;;;;;;;;20.50;99.90;;;;;;7330787;19;108477;-68
2023/09/09 01:40:05;;;;;;;;;;;20.50;99.90;;;;;;7330779;19;109289;-73
2023/09/09 01:42:32;;;;;;;;;;;20.50;99.90;;;;;;7333210;19;109228;-76
2023/09/09 01:45:00;;;;;;;;;;;20.40;99.90;;;;;;7343572;19;108152;-74
2023/09/09 01:47:27;;;;;;;;;;;20.40;99.90;;;;;;7338831;19;109351;-73
2023/09/09 01:49:54;;;;;;;;;;;20.30;99.90;;;;;;7335520;19;109436;-74
2023/09/09 01:52:21;;;;;;;;;;;20.30;99.90;;;;;;7335487;19;109106;-75
2023/09/09 01:54:48;;;;;;;;;;;20.20;99.90;;;;;;7335426;19;109900;-76
2023/09/09 01:57:19;;;;;;;;;;;20.20;99.90;;;;;;7339375;19;109365;-75
2023/09/09 01:59:46;;;;;;;;;;;20.10;99.90;;;;;;7335708;19;110130;-75
2023/09/09 02:02:16;;;;;;;;;;;20.10;99.90;;;;;;7338228;19;108769;-73
2023/09/09 02:04:43;;;;;;;;;;;20.10;99.90;;;;;;7336207;19;109575;-75
2023/09/09 02:07:10;;;;;;;;;;;20.00;99.90;;;;;;7341400;19;111002;-76
2023/09/09 02:09:38;;;;;;;;;;;20.00;99.90;;;;;;7337343;19;109451;-73
2023/09/09 02:12:05;;;;;;;;;;;20.00;99.90;;;;;;7332407;19;109882;-74
2023/09/09 02:14:32;;;;;;;;;;;20.00;99.90;;;;;;7341467;19;108800;-75
2023/09/09 02:16:59;;;;;;;;;;;20.00;99.90;;;;;;7338574;19;108564;-74
2023/09/09 02:19:26;;;;;;;;;;;20.00;99.90;;;;;;7338331;19;109919;-69
2023/09/09 02:21:55;;;;;;;;;;;20.00;99.90;;;;;;7336044;19;109146;-69
2023/09/09 02:24:22;;;;;;;;;;;20.00;99.90;;;;;;7335947;19;108830;-74
2023/09/09 02:26:49;;;;;;;;;;;19.90;99.90;;;;;;7336550;19;110079;-69
2023/09/09 02:29:17;;;;;;;;;;;19.80;99.90;;;;;;7344591;19;108664;-69
2023/09/09 02:31:44;;;;;;;;;;;19.80;99.90;;;;;;7334781;19;109561;-70
2023/09/09 02:34:11;;;;;;;;;;;19.70;99.90;;;;;;7330942;19;109585;-69
2023/09/09 02:36:43;;;;;;;;;;;19.70;99.90;;;;;;7335461;19;110549;-69
2023/09/09 02:39:10;;;;;;;;;;;19.60;99.90;;;;;;7334767;19;109862;-69
2023/09/09 02:41:38;;;;;;;;;;;19.60;99.90;;;;;;7331673;19;108628;-68
2023/09/09 02:44:05;;;;;;;;;;;19.70;99.90;;;;;;7338905;19;109525;-69
2023/09/09 02:46:32;;;;;;;;;;;19.60;99.90;;;;;;7335335;19;110880;-69
2023/09/09 02:48:59;;;;;;;;;;;19.60;99.90;;;;;;7330179;19;109787;-68
2023/09/09 02:51:26;;;;;;;;;;;19.60;99.90;;;;;;7341909;19;110004;-69
2023/09/09 02:53:53;;;;;;;;;;;19.60;99.90;;;;;;7333486;19;110890;-68
2023/09/09 02:56:20;;;;;;;;;;;19.60;99.90;;;;;;7334752;19;108626;-68
2023/09/09 02:58:48;;;;;;;;;;;19.60;99.90;;;;;;7330704;19;111323;-68
2023/09/09 03:01:15;;;;;;;;;;;19.60;99.90;;;;;;7336857;19;108907;-68
2023/09/09 03:03:42;;;;;;;;;;;19.60;99.90;;;;;;7331919;19;108634;-68
2023/09/09 03:06:10;;;;;;;;;;;19.50;99.90;;;;;;7334275;19;110671;-68
2023/09/09 03:08:37;;;;;;;;;;;19.50;99.90;;;;;;7333410;19;110083;-68
2023/09/09 03:11:05;;;;;;;;;;;19.40;99.90;;;;;;7337470;19;109649;-68
2023/09/09 03:13:32;;;;;;;;;;;19.30;99.90;;;;;;7338731;19;109125;-68
2023/09/09 03:15:59;;;;;;;;;;;19.40;99.90;;;;;;7333690;19;110950;-68
2023/09/09 03:18:26;;;;;;;;;;;19.30;99.90;;;;;;7336253;19;109071;-68
2023/09/09 03:20:53;;;;;;;;;;;19.30;99.90;;;;;;7337119;19;109183;-68
2023/09/09 03:23:20;;;;;;;;;;;19.30;99.90;;;;;;7335961;19;109791;-68
2023/09/09 03:25:47;;;;;;;;;;;19.40;99.90;;;;;;7334333;19;109985;-68
2023/09/09 03:28:14;;;;;;;;;;;19.30;99.90;;;;;;7337770;19;108841;-68
2023/09/09 03:30:51;;;;;;;;;;;19.30;99.90;;;;;;7334093;19;109030;-68
2023/09/09 03:33:18;;;;;;;;;;;19.30;99.90;;;;;;7341843;19;109336;-68
2023/09/09 03:35:45;;;;;;;;;;;19.20;99.90;;;;;;7331127;19;110974;-68
2023/09/09 03:38:13;;;;;;;;;;;19.20;99.90;;;;;;7336118;19;110723;-68
2023/09/09 03:40:42;;;;;;;;;;;19.20;99.90;;;;;;7332325;19;109524;-68
2023/09/09 03:43:09;;;;;;;;;;;19.20;99.90;;;;;;7338909;19;113233;-68
2023/09/09 03:45:36;;;;;;;;;;;19.20;99.90;;;;;;7332946;19;110540;-68
2023/09/09 03:48:04;;;;;;;;;;;19.20;99.90;;;;;;7334827;19;110841;-68
2023/09/09 03:50:32;;;;;;;;;;;19.10;99.90;;;;;;7335860;19;112638;-68
2023/09/09 03:53:00;;;;;;;;;;;19.10;99.90;;;;;;7332572;19;110364;-70
2023/09/09 03:55:27;;;;;;;;;;;19.10;99.90;;;;;;7340906;19;110625;-68
2023/09/09 03:57:54;;;;;;;;;;;19.00;99.90;;;;;;7332450;19;110547;-67
2023/09/09 04:00:21;;;;;;;;;;;19.00;99.90;;;;;;7336114;19;108477;-69
2023/09/09 04:02:50;;;;;;;;;;;19.00;99.90;;;;;;7332311;19;109885;-69
2023/09/09 04:05:17;;;;;;;;;;;19.00;99.90;;;;;;7330600;19;109462;-68
2023/09/09 04:07:44;;;;;;;;;;;19.00;99.90;;;;;;7334365;19;110463;-68
2023/09/09 04:10:14;;;;;;;;;;;19.00;99.90;;;;;;7337130;19;108936;-68
2023/09/09 04:12:41;;;;;;;;;;;19.00;99.90;;;;;;7331817;19;110963;-68
2023/09/09 04:15:10;;;;;;;;;;;19.00;99.90;;;;;;7334986;19;108567;-68
2023/09/09 04:17:38;;;;;;;;;;;19.00;99.90;;;;;;7336626;19;108826;-68
2023/09/09 04:20:06;;;;;;;;;;;19.00;99.90;;;;;;7334908;19;110256;-68
2023/09/09 04:22:33;;;;;;;;;;;19.00;99.90;;;;;;7333866;19;109377;-68
2023/09/09 04:25:01;;;;;;;;;;;19.10;99.90;;;;;;7331279;19;110823;-68
2023/09/09 04:27:28;;;;;;;;;;;19.10;99.90;;;;;;7334251;19;109029;-68
2023/09/09 04:29:55;;;;;;;;;;;19.10;99.90;;;;;;7333792;19;109628;-69
2023/09/09 04:32:23;;;;;;;;;;;19.10;99.90;;;;;;7329651;19;109065;-68
2023/09/09 04:34:50;;;;;;;;;;;19.20;99.90;;;;;;7331063;19;109515;-69
2023/09/09 04:37:18;;;;;;;;;;;19.20;99.90;;;;;;7333230;19;109195;-68
2023/09/09 04:39:45;;;;;;;;;;;19.20;99.90;;;;;;7337539;19;109508;-71
2023/09/09 04:42:12;;;;;;;;;;;19.20;99.90;;;;;;7332655;19;109046;-68
2023/09/09 04:44:39;;;;;;;;;;;19.10;99.90;;;;;;7328713;19;109321;-69
2023/09/09 04:47:06;;;;;;;;;;;19.20;99.90;;;;;;7326435;19;108858;-68
2023/09/09 04:49:33;;;;;;;;;;;19.10;99.90;;;;;;7334071;19;109878;-68
2023/09/09 04:52:00;;;;;;;;;;;19.10;99.90;;;;;;7328161;19;111241;-68
2023/09/09 04:54:28;;;;;;;;;;;19.10;99.90;;;;;;7334087;19;109538;-68
2023/09/09 04:56:55;;;;;;;;;;;19.10;99.90;;;;;;7329119;19;110534;-68
2023/09/09 04:59:22;;;;;;;;;;;19.10;99.90;;;;;;7333663;19;110483;-68
2023/09/09 05:01:49;;;;;;;;;;;19.10;99.90;;;;;;7336014;19;109101;-68
2023/09/09 05:04:17;;;;;;;;;;;19.10;99.90;;;;;;7330795;19;110517;-68
2023/09/09 05:06:44;;;;;;;;;;;19.10;99.90;;;;;;7331132;19;109043;-68
2023/09/09 05:09:11;;;;;;;;;;;19.10;99.90;;;;;;7333545;19;109161;-68
2023/09/09 05:11:38;;;;;;;;;;;19.00;99.90;;;;;;7332790;19;109484;-68
2023/09/09 05:14:06;;;;;;;;;;;18.90;99.90;;;;;;7326159;19;108711;-68
2023/09/09 05:16:34;;;;;;;;;;;18.90;99.90;;;;;;7329768;19;109360;-68
2023/09/09 05:19:01;;;;;;;;;;;18.80;99.90;;;;;;7334762;19;109379;-68
2023/09/09 05:21:28;;;;;;;;;;;18.80;99.90;;;;;;7343318;19;110058;-68
2023/09/09 05:23:55;;;;;;;;;;;18.80;99.90;;;;;;7334360;19;110082;-68
2023/09/09 05:26:22;;;;;;;;;;;18.80;99.90;;;;;;7338245;19;108389;-69
2023/09/09 05:28:52;;;;;;;;;;;18.80;99.90;;;;;;7342572;19;108783;-68
2023/09/09 05:31:19;;;;;;;;;;;18.70;99.90;;;;;;7338098;19;110334;-69
2023/09/09 05:33:46;;;;;;;;;;;18.70;99.90;;;;;;7337627;19;108684;-69
2023/09/09 05:36:14;;;;;;;;;;;18.70;99.90;;;;;;7333052;19;108934;-68
2023/09/09 05:38:41;;;;;;;;;;;18.70;99.90;;;;;;7335846;19;110726;-68
2023/09/09 05:41:08;;;;;;;;;;;18.70;99.90;;;;;;7334766;19;108539;-68
2023/09/09 05:43:35;;;;;;;;;;;18.70;99.90;;;;;;7338029;19;111261;-68
2023/09/09 05:46:03;;;;;;;;;;;18.80;99.90;;;;;;7337420;19;108682;-68
2023/09/09 05:48:31;;;;;;;;;;;18.80;99.90;;;;;;7335939;19;108942;-69
2023/09/09 05:50:58;;;;;;;;;;;18.80;99.90;;;;;;7339638;19;110182;-69
2023/09/09 05:53:25;;;;;;;;;;;18.90;99.90;;;;;;7335783;19;110045;-69
2023/09/09 05:55:53;;;;;;;;;;;18.80;99.90;;;;;;7338867;19;109080;-67
2023/09/09 05:58:21;;;;;;;;;;;18.80;99.90;;;;;;7337692;19;109143;-68
2023/09/09 06:00:48;;;;;;;;;;;18.80;99.90;;;;;;7338930;19;109652;-68
2023/09/09 06:03:15;;;;;;;;;;;18.90;99.90;;;;;;7338244;19;109400;-68
2023/09/09 06:05:42;;;;;;;;;;;19.00;99.90;;;;;;7340935;19;109512;-68
2023/09/09 06:08:09;;;;;;;;;;;19.00;99.90;;;;;;7337648;19;108239;-69
2023/09/09 06:10:36;;;;;;;;;;;19.10;99.90;;;;;;7336367;19;109505;-68
2023/09/09 06:13:04;;;;;;;;;;;19.20;99.90;;;;;;7338128;19;108525;-68
2023/09/09 06:15:31;;;;;;;;;;;19.30;99.90;;;;;;7336344;19;108489;-68
2023/09/09 06:17:59;;;;;;;;;;;19.30;99.90;;;;;;7335032;19;111479;-69
2023/09/09 06:20:27;;;;;;;;;;;19.40;99.90;;;;;;7335949;19;110417;-68
2023/09/09 06:22:54;;;;;;;;;;;19.50;99.90;;;;;;7336884;19;110145;-69
2023/09/09 06:25:21;;;;;;;;;;;19.50;99.90;;;;;;7334666;19;109137;-68
2023/09/09 06:27:48;;;;;;;;;;;19.60;99.90;;;;;;7343909;19;110099;-68
2023/09/09 06:30:15;;;;;;;;;;;19.70;99.90;;;;;;7334552;19;109972;-68
2023/09/09 06:32:43;;;;;;;;;;;19.80;99.90;;;;;;7334115;19;109635;-68
2023/09/09 06:35:10;;;;;;;;;;;19.80;99.90;;;;;;7333252;19;109956;-68
2023/09/09 06:37:37;;;;;;;;;;;19.90;99.90;;;;;;7336397;19;109908;-67
2023/09/09 06:40:04;;;;;;;;;;;19.90;99.90;;;;;;7335184;19;109047;-68
2023/09/09 06:42:31;;;;;;;;;;;20.00;99.90;;;;;;7338905;19;108430;-68
2023/09/09 06:44:59;;;;;;;;;;;20.00;99.90;;;;;;7332568;19;109539;-68
2023/09/09 06:47:26;;;;;;;;;;;20.10;99.90;;;;;;7334587;19;109046;-68
2023/09/09 06:49:53;;;;;;;;;;;20.20;99.90;;;;;;7342088;19;109055;-69
2023/09/09 06:52:20;;;;;;;;;;;20.30;99.90;;;;;;7332830;19;110713;-68
2023/09/09 06:54:47;;;;;;;;;;;20.30;99.90;;;;;;7337688;19;110502;-68
2023/09/09 06:57:14;;;;;;;;;;;20.40;99.90;;;;;;7336121;19;109124;-69
2023/09/09 06:59:41;;;;;;;;;;;20.50;99.90;;;;;;7338621;19;109983;-68
2023/09/09 07:02:09;;;;;;;;;;;20.60;99.90;;;;;;7333779;19;109091;-68
2023/09/09 07:04:36;;;;;;;;;;;20.60;99.90;;;;;;7333583;19;111586;-68
2023/09/09 07:07:03;;;;;;;;;;;20.70;99.90;;;;;;7338555;19;109853;-68
2023/09/09 07:09:38;;;;;;;;;;;20.80;99.90;;;;;;7341699;19;108717;-69
2023/09/09 07:12:05;;;;;;;;;;;20.90;99.90;;;;;;7336921;19;109533;-69
2023/09/09 07:14:33;;;;;;;;;;;21.00;99.90;;;;;;7338826;19;110846;-69
2023/09/09 07:17:03;;;;;;;;;;;21.10;99.90;;;;;;7335538;19;110279;-68
2023/09/09 07:19:31;;;;;;;;;;;21.20;99.90;;;;;;7335776;19;111519;-69
2023/09/09 07:21:58;;;;;;;;;;;21.30;99.90;;;;;;7339390;19;109802;-70
2023/09/09 07:24:25;;;;;;;;;;;21.40;99.90;;;;;;7333452;19;109474;-69
2023/09/09 07:26:52;;;;;;;;;;;21.60;99.90;;;;;;7331026;19;108802;-61
2023/09/09 07:29:20;;;;;;;;;;;21.70;99.90;;;;;;7333349;19;109146;-61
2023/09/09 07:31:47;;;;;;;;;;;21.80;99.90;;;;;;7342025;19;109721;-61
2023/09/09 07:34:15;;;;;;;;;;;21.90;99.90;;;;;;7334897;19;109339;-61
2023/09/09 07:36:42;;;;;;;;;;;22.00;99.90;;;;;;7337627;19;110069;-61
2023/09/09 07:39:09;;;;;;;;;;;22.10;99.90;;;;;;7334320;19;108798;-61
2023/09/09 07:41:36;;;;;;;;;;;22.20;99.90;;;;;;7337113;19;109246;-61
2023/09/09 07:44:03;;;;;;;;;;;22.30;99.90;;;;;;7338923;19;110399;-61
2023/09/09 07:46:30;;;;;;;;;;;22.40;99.90;;;;;;7334780;19;108785;-62
2023/09/09 07:48:58;;;;;;;;;;;22.50;99.90;;;;;;7339110;19;109418;-61
2023/09/09 07:51:25;;;;;;;;;;;22.60;99.90;;;;;;7334755;19;109084;-62
2023/09/09 07:53:52;;;;;;;;;;;22.70;99.90;;;;;;7342471;19;109558;-61
2023/09/09 07:56:19;;;;;;;;;;;22.80;99.90;;;;;;7335583;19;109830;-62
2023/09/09 07:58:46;;;;;;;;;;;22.90;99.90;;;;;;7337216;19;109478;-62
2023/09/09 08:01:13;;;;;;;;;;;23.00;99.90;;;;;;7333855;19;111717;-62
2023/09/09 08:03:41;;;;;;;;;;;23.10;99.90;;;;;;7336481;19;109561;-62
2023/09/09 08:06:09;;;;;;;;;;;23.20;99.90;;;;;;7339083;19;108446;-64
2023/09/09 08:08:36;;;;;;;;;;;23.40;99.90;;;;;;7336727;19;108989;-62
2023/09/09 08:11:04;;;;;;;;;;;23.50;99.90;;;;;;7335128;19;110007;-61
2023/09/09 08:13:31;;;;;;;;;;;23.50;99.90;;;;;;7336433;19;109064;-61
2023/09/09 08:15:58;;;;;;;;;;;23.60;99.90;;;;;;7340394;19;108663;-62
2023/09/09 08:18:26;;;;;;;;;;;23.60;99.90;;;;;;7335209;19;109582;-62
2023/09/09 08:20:53;;;;;;;;;;;23.70;99.90;;;;;;7336642;19;108500;-62
2023/09/09 08:23:22;;;;;;;;;;;23.80;99.90;;;;;;7334491;19;109196;-62
2023/09/09 08:25:49;;;;;;;;;;;23.90;99.90;;;;;;7334719;19;109290;-62
2023/09/09 08:28:17;;;;;;;;;;;24.10;99.90;;;;;;7334613;19;109357;-62
2023/09/09 08:30:46;;;;;;;;;;;24.20;99.90;;;;;;7330865;19;109650;-61
2023/09/09 08:33:13;;;;;;;;;;;24.30;99.90;;;;;;7335768;19;108824;-62
2023/09/09 08:35:40;;;;;;;;;;;24.40;99.90;;;;;;7335540;19;111219;-60
2023/09/09 08:38:07;;;;;;;;;;;24.50;99.90;;;;;;7339452;19;109385;-62
2023/09/09 08:40:40;;;;;;;;;;;24.60;99.90;;;;;;7332711;19;108929;-62
2023/09/09 08:43:13;;;;;;;;;;;24.60;99.90;;;;;;7335557;19;110253;-62
2023/09/09 08:45:47;;;;;;;;;;;24.70;99.90;;;;;;7333116;19;108846;-62
2023/09/09 08:48:17;;;;;;;;;;;24.80;99.90;;;;;;7334147;19;108648;-62
2023/09/09 08:50:45;;;;;;;;;;;24.80;99.90;;;;;;7335652;19;109429;-62
2023/09/09 08:53:13;;;;;;;;;;;25.00;99.90;;;;;;7332319;19;109858;-62
2023/09/09 08:55:40;;;;;;;;;;;25.00;99.90;;;;;;7334265;19;109298;-61
2023/09/09 08:58:08;;;;;;;;;;;25.10;99.90;;;;;;7333858;19;109674;-62
2023/09/09 09:00:37;;;;;;;;;;;25.10;99.90;;;;;;7341135;19;109323;-62
2023/09/09 09:03:04;;;;;;;;;;;25.20;99.90;;;;;;7333769;19;109396;-62
2023/09/09 09:05:32;;;;;;;;;;;25.30;99.90;;;;;;7336661;19;108668;-62
2023/09/09 09:08:00;;;;;;;;;;;25.40;99.90;;;;;;7334256;19;109597;-62
2023/09/09 09:10:27;;;;;;;;;;;25.50;99.90;;;;;;7336393;19;110141;-62
2023/09/09 09:12:54;;;;;;;;;;;25.60;99.90;;;;;;7336660;19;109082;-61
2023/09/09 09:15:22;;;;;;;;;;;25.70;99.90;;;;;;7335397;19;108892;-62
2023/09/09 09:17:50;;;;;;;;;;;25.80;99.90;;;;;;7335104;19;109274;-62
2023/09/09 09:20:24;;;;;;;;;;;25.80;99.90;;;;;;7341177;19;108535;-62
2023/09/09 09:22:52;;;;;;;;;;;25.90;99.90;;;;;;7336616;19;109726;-61
2023/09/09 09:25:20;;;;;;;;;;;25.90;99.90;;;;;;7329284;19;108916;-61
2023/09/09 09:27:47;;;;;;;;;;;25.90;99.90;;;;;;7334123;19;108655;-62
2023/09/09 09:30:21;;;;;;;;;;;26.00;99.90;;;;;;7333956;19;109232;-62
2023/09/09 09:32:53;;;;;;;;;;;26.10;99.90;;;;;;7332983;19;108791;-61
2023/09/09 09:35:24;;;;;;;;;;;26.20;99.90;;;;;;7332522;19;108444;-62
2023/09/09 09:38:01;;;;;;;;;;;26.40;99.90;;;;;;7333097;19;109412;-62
2023/09/09 09:40:29;;;;;;;;;;;26.50;99.90;;;;;;7332191;19;110331;-60
2023/09/09 09:42:57;;;;;;;;;;;26.70;99.90;;;;;;7339331;19;108498;-61
2023/09/09 09:45:24;;;;;;;;;;;26.80;99.90;;;;;;7333647;19;108477;-62
2023/09/09 09:47:52;;;;;;;;;;;26.90;99.90;;;;;;7335592;19;109242;-61
2023/09/09 09:50:22;;;;;;;;;;;26.80;99.90;;;;;;7333935;19;108972;-60
2023/09/09 09:53:00;;;;;;;;;;;26.80;99.90;;;;;;7334862;19;108893;-59
2023/09/09 09:55:28;;;;;;;;;;;26.90;99.90;;;;;;7333875;19;108993;-59
2023/09/09 09:57:57;;;;;;;;;;;27.00;99.90;;;;;;7328106;19;110094;-61
2023/09/09 10:00:25;;;;;;;;;;;27.10;99.90;;;;;;7333956;19;109393;-59
2023/09/09 10:02:53;;;;;;;;;;;27.20;99.90;;;;;;7330595;19;108568;-60
2023/09/09 10:05:22;;;;;;;;;;;27.30;99.90;;;;;;7344527;19;109312;-60
2023/09/09 10:07:53;;;;;;;;;;;27.40;99.90;;;;;;7340430;19;109227;-60
2023/09/09 10:10:25;;;;;;;;;;;27.40;99.90;;;;;;7340391;19;109194;-59
2023/09/09 10:12:58;;;;;;;;;;;27.40;99.90;;;;;;7341562;19;108606;-59
2023/09/09 10:15:26;;;;;;;;;;;27.50;99.90;;;;;;7340128;19;108609;-59
2023/09/09 10:17:53;;;;;;;;;;;27.60;99.90;;;;;;7340301;19;110087;-59
2023/09/09 10:20:22;;;;;;;;;;;27.70;99.90;;;;;;7341204;19;109045;-60
2023/09/09 10:22:50;;;;;;;;;;;27.70;99.90;;;;;;7340512;19;109198;-62
2023/09/09 10:25:17;;;;;;;;;;;27.80;99.90;;;;;;7341219;19;109119;-58
2023/09/09 10:27:44;;;;;;;;;;;27.80;99.90;;;;;;7347109;19;109353;-59
2023/09/09 10:30:12;;;;;;;;;;;27.90;99.90;;;;;;7340387;19;109657;-60
2023/09/09 10:32:40;;;;;;;;;;;28.00;99.90;;;;;;7339008;19;110830;-60
2023/09/09 10:35:08;;;;;;;;;;;28.10;99.90;;;;;;7340226;19;109031;-59
2023/09/09 10:37:36;;;;;;;;;;;28.10;99.90;;;;;;7340023;19;110062;-59
2023/09/09 10:40:04;;;;;;;;;;;28.10;99.90;;;;;;7338663;19;110964;-59
2023/09/09 10:42:34;;;;;;;;;;;28.20;99.90;;;;;;7340847;19;109278;-59
2023/09/09 10:45:19;;;;;;;;;;;28.30;99.90;;;;;;7339104;19;109236;-59
2023/09/09 10:47:50;;;;;;;;;;;28.30;99.90;;;;;;7340355;19;109462;-59
2023/09/09 10:50:19;;;;;;;;;;;28.30;99.90;;;;;;7342367;19;108684;-59
2023/09/09 10:52:50;;;;;;;;;;;28.40;99.90;;;;;;7336411;19;109157;-59
2023/09/09 10:55:26;;;;;;;;;;;28.40;99.90;;;;;;7338495;19;111648;-59
2023/09/09 10:57:57;;;;;;;;;;;28.40;99.90;;;;;;7337929;19;110182;-59
2023/09/09 11:00:40;;;;;;;;;;;28.50;99.90;;;;;;7339570;19;108821;-59
2023/09/09 11:03:15;;;;;;;;;;;28.60;99.90;;;;;;7338716;19;109683;-59
2023/09/09 11:05:58;;;;;;;;;;;28.70;99.90;;;;;;7338301;19;110168;-58
2023/09/09 11:08:35;;;;;;;;;;;28.70;99.90;;;;;;7338459;19;111599;-59
2023/09/09 11:11:08;;;;;;;;;;;28.70;99.90;;;;;;7338668;19;109344;-59
2023/09/09 11:13:38;;;;;;;;;;;28.80;99.90;;;;;;7341955;19;110935;-60
2023/09/09 11:16:06;;;;;;;;;;;28.90;99.90;;;;;;7338779;19;109304;-60
2023/09/09 11:18:36;;;;;;;;;;;29.00;99.90;;;;;;7336889;19;109604;-59
2023/09/09 11:21:05;;;;;;;;;;;29.10;99.90;;;;;;7340265;19;109198;-59
2023/09/09 11:23:33;;;;;;;;;;;29.10;99.90;;;;;;7337263;19;109083;-59
2023/09/09 11:26:00;;;;;;;;;;;29.10;99.90;;;;;;7336492;19;109606;-60
2023/09/09 11:28:29;;;;;;;;;;;29.10;99.90;;;;;;7338844;19;109204;-60
2023/09/09 11:30:56;;;;;;;;;;;29.20;99.90;;;;;;7334860;19;108829;-60
2023/09/09 11:33:24;;;;;;;;;;;29.30;99.90;;;;;;7332147;19;111256;-60
2023/09/09 11:35:51;;;;;;;;;;;29.30;99.90;;;;;;7333526;19;109037;-60
2023/09/09 11:38:18;;;;;;;;;;;29.50;99.90;;;;;;7333954;19;110096;-60
2023/09/09 11:40:46;;;;;;;;;;;29.60;99.90;;;;;;7337247;19;108542;-61
2023/09/09 11:43:16;;;;;;;;;;;29.70;99.90;;;;;;7335456;19;108835;-61
2023/09/09 11:45:44;;;;;;;;;;;29.80;99.90;;;;;;7334682;19;110356;-61
2023/09/09 11:48:14;;;;;;;;;;;29.90;99.90;;;;;;7336482;19;108887;-60
2023/09/09 11:50:42;;;;;;;;;;;29.90;99.90;;;;;;7336486;19;108816;-61
2023/09/09 11:53:11;;;;;;;;;;;30.00;99.90;;;;;;7332074;19;109234;-61
2023/09/09 11:55:39;;;;;;;;;;;30.10;99.90;;;;;;7339735;19;109105;-61
2023/09/09 11:58:06;;;;;;;;;;;30.20;99.90;;;;;;7335755;19;109788;-61
2023/09/09 12:00:33;;;;;;;;;;;30.20;99.90;;;;;;7335841;19;113508;-60
2023/09/09 12:03:01;;;;;;;;;;;30.20;99.90;;;;;;7334020;19;109378;-61
2023/09/09 12:05:29;;;;;;;;;;;30.30;99.90;;;;;;7332173;19;109130;-61
2023/09/09 12:07:58;;;;;;;;;;;30.40;99.90;;;;;;7336914;19;108960;-61
2023/09/09 12:10:30;;;;;;;;;;;30.40;99.90;;;;;;7334758;19;110833;-61
2023/09/09 12:12:57;;;;;;;;;;;30.50;99.90;;;;;;7334582;19;110655;-61
2023/09/09 12:15:24;;;;;;;;;;;30.60;99.90;;;;;;7334286;19;108900;-60
2023/09/09 12:17:52;;;;;;;;;;;30.90;99.90;;;;;;7339742;19;109070;-61
2023/09/09 12:20:19;;;;;;;;;;;31.10;99.90;;;;;;7335396;19;108880;-61
2023/09/09 12:22:52;;;;;;;;;;;31.10;99.90;;;;;;7337303;19;109512;-61
2023/09/09 12:25:37;;;;;;;;;;;31.20;99.90;;;;;;7332736;19;109910;-61
2023/09/09 12:28:15;;;;;;;;;;;31.30;99.90;;;;;;7333024;19;109353;-61
2023/09/09 12:30:42;;;;;;;;;;;31.40;99.90;;;;;;7335304;19;108499;-61
2023/09/09 12:33:11;;;;;;;;;;;31.50;99.90;;;;;;7333329;19;109137;-61
2023/09/09 12:35:43;;;;;;;;;;;31.60;99.90;;;;;;7334173;19;109330;-61
2023/09/09 12:38:10;;;;;;;;;;;31.70;99.90;;;;;;7330550;19;109379;-61
2023/09/09 12:40:51;;;;;;;;;;;31.80;99.90;;;;;;7338196;19;109292;-61
2023/09/09 12:43:22;;;;;;;;;;;31.80;99.90;;;;;;7330960;19;110114;-61
2023/09/09 12:45:51;;;;;;;;;;;32.00;99.90;;;;;;7332234;19;109062;-61
2023/09/09 12:48:19;;;;;;;;;;;32.00;99.90;;;;;;7333055;19;108731;-61
2023/09/09 12:50:47;;;;;;;;;;;32.10;99.90;;;;;;7334669;19;110652;-61
2023/09/09 12:53:14;;;;;;;;;;;32.20;99.90;;;;;;7332320;19;109586;-61
2023/09/09 12:55:41;;;;;;;;;;;32.20;99.90;;;;;;7335356;19;109605;-61
2023/09/09 12:58:08;;;;;;;;;;;32.30;99.90;;;;;;7331409;19;108627;-61
2023/09/09 13:00:36;;;;;;;;;;;32.40;99.90;;;;;;7331635;19;109121;-61
2023/09/09 13:03:03;;;;;;;;;;;32.60;99.90;;;;;;7334071;19;110994;-60
2023/09/09 13:05:31;;;;;;;;;;;32.70;99.90;;;;;;7332816;19;109103;-61
2023/09/09 13:07:59;;;;;;;;;;;32.90;99.90;;;;;;7330911;19;108827;-61
2023/09/09 13:10:26;;;;;;;;;;;33.00;99.90;;;;;;7331814;19;109145;-61
2023/09/09 13:12:54;;;;;;;;;;;33.10;99.90;;;;;;7333705;19;110073;-61
2023/09/09 13:15:22;;;;;;;;;;;33.10;99.70;;;;;;7332751;19;109245;-61
2023/09/09 13:17:49;;;;;;;;;;;33.10;99.90;;;;;;7331009;19;108463;-61
2023/09/09 13:20:17;;;;;;;;;;;33.10;99.90;;;;;;7333964;19;109372;-61
2023/09/09 13:22:44;;;;;;;;;;;33.20;99.90;;;;;;7334273;19;108640;-61
2023/09/09 13:25:11;;;;;;;;;;;33.40;99.90;;;;;;7333652;19;110411;-61
2023/09/09 13:27:38;;;;;;;;;;;33.50;99.90;;;;;;7329836;19;108651;-61
2023/09/09 13:30:06;;;;;;;;;;;33.50;99.80;;;;;;7324696;19;108716;-61
2023/09/09 13:32:33;;;;;;;;;;;33.60;99.90;;;;;;7328225;19;110225;-61
2023/09/09 13:35:00;;;;;;;;;;;33.80;99.90;;;;;;7331794;19;110292;-61
2023/09/09 13:37:28;;;;;;;;;;;33.80;99.90;;;;;;7331992;19;109533;-61
2023/09/09 13:39:55;;;;;;;;;;;33.90;99.90;;;;;;7336409;19;109731;-61
2023/09/09 13:42:22;;;;;;;;;;;34.10;99.30;;;;;;7337992;19;108732;-61
2023/09/09 13:44:50;;;;;;;;;;;34.10;99.70;;;;;;7344036;19;109006;-61
2023/09/09 13:47:23;;;;;;;;;;;34.30;99.90;;;;;;7337708;19;109059;-61
2023/09/09 13:49:50;;;;;;;;;;;34.50;99.90;;;;;;7339403;19;109684;-61
2023/09/09 13:52:17;;;;;;;;;;;34.60;99.90;;;;;;7336883;19;110952;-61
2023/09/09 13:54:46;;;;;;;;;;;34.70;99.90;;;;;;7339384;19;109786;-60
2023/09/09 13:57:13;;;;;;;;;;;34.80;99.40;;;;;;7337564;19;111939;-61
2023/09/09 13:59:41;;;;;;;;;;;35.00;99.30;;;;;;7336912;19;109917;-60
2023/09/09 14:02:08;;;;;;;;;;;35.20;99.90;;;;;;7340486;19;110529;-65
2023/09/09 14:04:36;;;;;;;;;;;35.20;99.20;;;;;;7338041;19;110453;-67
2023/09/09 14:07:07;;;;;;;;;;;35.20;98.40;;;;;;7342984;19;128544;-63
2023/09/09 14:09:34;;;;;;;;;;;35.30;99.90;;;;;;7334401;19;109779;-66